createdAt,value
2017-08-28T00:00:12.811Z,10.8
2017-08-28T00:01:14.466Z,10.7
2017-08-28T00:02:16.116Z,10.8
2017-08-28T00:03:17.765Z,10.7
2017-08-28T00:04:19.423Z,10.7
2017-08-28T00:05:21.084Z,10.7
2017-08-28T00:06:22.724Z,10.7
2017-08-28T00:07:24.381Z,10.7
2017-08-28T00:08:26.029Z,10.6
2017-08-28T00:09:27.682Z,10.7
2017-08-28T00:10:29.328Z,10.7
2017-08-28T00:11:30.986Z,10.8
2017-08-28T00:12:32.638Z,10.8
2017-08-28T00:13:34.293Z,10.9
2017-08-28T00:14:35.948Z,10.8
2017-08-28T00:15:37.602Z,10.7
2017-08-28T00:16:39.249Z,10.8
2017-08-28T00:17:40.901Z,10.7
2017-08-28T00:18:42.561Z,10.7
2017-08-28T00:19:44.214Z,10.9
2017-08-28T00:20:45.874Z,10.7
2017-08-28T00:21:47.526Z,10.6
2017-08-28T00:22:49.185Z,10.6
2017-08-28T00:23:50.847Z,10.7
2017-08-28T00:24:52.494Z,10.5
2017-08-28T00:25:54.149Z,10.4
2017-08-28T00:26:55.804Z,10.5
2017-08-28T00:27:57.457Z,10.6
2017-08-28T00:28:59.112Z,10.7
2017-08-28T00:30:00.757Z,10.5
2017-08-28T00:31:02.410Z,10.5
2017-08-28T00:32:04.071Z,10.5
2017-08-28T00:33:05.732Z,10.4
2017-08-28T00:34:07.381Z,10.5
2017-08-28T00:35:09.033Z,10.5
2017-08-28T00:36:10.695Z,10.4
2017-08-28T00:37:12.361Z,10.3
2017-08-28T00:38:14.019Z,10.2
2017-08-28T00:39:15.667Z,10.3
2017-08-28T00:40:17.324Z,10.3
2017-08-28T00:41:18.983Z,10.3
2017-08-28T00:42:20.687Z,10.3
2017-08-28T00:43:22.346Z,10.2
2017-08-28T00:44:24.007Z,10.4
2017-08-28T00:45:25.661Z,10.5
2017-08-28T00:46:27.311Z,10.4
2017-08-28T00:47:28.970Z,10.4
2017-08-28T00:48:30.619Z,10.4
2017-08-28T00:49:32.272Z,10.3
2017-08-28T00:50:33.919Z,10.2
2017-08-28T00:51:35.581Z,10.3
2017-08-28T00:52:37.231Z,10.3
2017-08-28T00:53:38.886Z,10.5
2017-08-28T00:54:40.543Z,10.4
2017-08-28T00:55:42.191Z,10.4
2017-08-28T00:56:43.852Z,10.3
2017-08-28T00:57:45.518Z,10.4
2017-08-28T00:58:47.170Z,10.6
2017-08-28T00:59:48.824Z,10.5
2017-08-28T01:00:50.485Z,10.3
2017-08-28T01:01:52.147Z,10.4
2017-08-28T01:02:53.805Z,10.3
2017-08-28T01:03:55.476Z,10.3
2017-08-28T01:04:57.134Z,10.3
2017-08-28T01:05:58.803Z,10.3
2017-08-28T01:07:00.502Z,10.3
2017-08-28T01:08:02.149Z,10.3
2017-08-28T01:09:03.801Z,10.2
2017-08-28T01:10:05.456Z,10.2
2017-08-28T01:11:07.113Z,10.1
2017-08-28T01:12:08.768Z,10.2
2017-08-28T01:13:10.431Z,10.1
2017-08-28T01:14:12.079Z,10.1
2017-08-28T01:15:13.740Z,10.2
2017-08-28T01:16:15.398Z,10.3
2017-08-28T01:17:17.057Z,10.2
2017-08-28T01:18:18.719Z,10.2
2017-08-28T01:19:20.376Z,10.1
2017-08-28T01:20:22.024Z,10.0
2017-08-28T01:21:23.681Z,10.0
2017-08-28T01:22:25.330Z,10.2
2017-08-28T01:23:26.992Z,10.1
2017-08-28T01:24:28.646Z,10.0
2017-08-28T01:25:30.304Z,10.0
2017-08-28T01:26:31.952Z,9.9
2017-08-28T01:27:33.611Z,10.0
2017-08-28T01:28:35.259Z,9.9
2017-08-28T01:29:36.915Z,9.9
2017-08-28T01:30:38.569Z,9.8
2017-08-28T01:31:40.219Z,9.8
2017-08-28T01:32:41.878Z,10.0
2017-08-28T01:33:43.530Z,10.0
2017-08-28T01:34:45.186Z,10.0
2017-08-28T01:35:46.845Z,9.9
2017-08-28T01:36:48.503Z,9.8
2017-08-28T01:37:50.150Z,9.8
2017-08-28T01:38:51.801Z,9.9
2017-08-28T01:39:53.453Z,9.9
2017-08-28T01:40:55.111Z,9.9
2017-08-28T01:41:56.766Z,9.8
2017-08-28T01:42:58.413Z,9.8
2017-08-28T01:44:00.130Z,10.0
2017-08-28T01:45:01.778Z,9.9
2017-08-28T01:46:03.434Z,9.7
2017-08-28T01:47:05.097Z,9.7
2017-08-28T01:48:06.751Z,9.9
2017-08-28T01:49:08.408Z,9.9
2017-08-28T01:50:10.051Z,9.9
2017-08-28T01:51:11.710Z,9.8
2017-08-28T01:52:13.361Z,9.7
2017-08-28T01:53:15.010Z,9.8
2017-08-28T01:54:16.662Z,9.7
2017-08-28T01:55:18.311Z,9.7
2017-08-28T02:01:54.957Z,9.7
2017-08-28T02:02:56.599Z,9.7
2017-08-28T02:04:48.417Z,9.9
2017-08-28T02:05:50.057Z,9.7
2017-08-28T02:06:51.705Z,9.7
2017-08-28T02:07:53.357Z,9.6
2017-08-28T02:08:55.016Z,9.6
2017-08-28T02:09:56.704Z,9.5
2017-08-28T02:10:58.331Z,9.5
2017-08-28T02:11:59.999Z,9.6
2017-08-28T02:13:01.646Z,9.7
2017-08-28T02:14:03.305Z,9.5
2017-08-28T02:15:04.953Z,9.5
2017-08-28T02:16:06.609Z,9.5
2017-08-28T02:17:08.268Z,9.5
2017-08-28T02:18:09.931Z,9.5
2017-08-28T02:19:11.584Z,9.5
2017-08-28T02:20:13.233Z,9.5
2017-08-28T02:21:14.887Z,9.5
2017-08-28T02:22:16.550Z,9.6
2017-08-28T02:23:18.207Z,9.7
2017-08-28T02:24:19.861Z,9.6
2017-08-28T02:25:21.513Z,9.5
2017-08-28T02:26:23.184Z,9.5
2017-08-28T02:27:24.838Z,9.6
2017-08-28T02:28:26.554Z,9.5
2017-08-28T02:29:28.211Z,9.7
2017-08-28T02:30:29.862Z,9.6
2017-08-28T02:31:31.522Z,9.6
2017-08-28T02:32:33.169Z,9.5
2017-08-28T02:33:34.833Z,9.4
2017-08-28T02:34:36.488Z,9.5
2017-08-28T02:35:38.144Z,9.5
2017-08-28T02:36:39.798Z,9.3
2017-08-28T02:37:41.447Z,9.4
2017-08-28T02:38:43.098Z,9.4
2017-08-28T02:39:44.742Z,9.3
2017-08-28T02:40:46.397Z,9.6
2017-08-28T02:41:48.045Z,9.6
2017-08-28T02:42:49.704Z,9.6
2017-08-28T02:43:51.353Z,9.5
2017-08-28T02:44:53.013Z,9.5
2017-08-28T02:45:54.674Z,9.4
2017-08-28T02:46:56.328Z,9.3
2017-08-28T02:47:57.985Z,9.4
2017-08-28T02:48:59.635Z,9.2
2017-08-28T02:50:01.280Z,9.3
2017-08-28T02:51:02.935Z,9.2
2017-08-28T02:52:04.583Z,9.2
2017-08-28T02:53:06.236Z,9.1
2017-08-28T02:54:07.889Z,9.2
2017-08-28T02:55:09.539Z,9.2
2017-08-28T02:56:11.194Z,9.2
2017-08-28T02:57:12.842Z,9.2
2017-08-28T02:58:14.500Z,9.2
2017-08-28T02:59:16.162Z,9.4
2017-08-28T03:00:17.816Z,9.2
2017-08-28T03:01:19.478Z,9.3
2017-08-28T03:02:21.135Z,9.4
2017-08-28T03:03:22.785Z,9.3
2017-08-28T03:04:24.447Z,9.2
2017-08-28T03:05:26.096Z,9.4
2017-08-28T03:06:27.747Z,9.2
2017-08-28T03:07:29.418Z,9.4
2017-08-28T03:08:31.078Z,9.3
2017-08-28T03:09:32.737Z,9.4
2017-08-28T03:10:34.401Z,9.2
2017-08-28T03:11:36.053Z,9.2
2017-08-28T03:12:37.708Z,9.2
2017-08-28T03:13:39.357Z,9.0
2017-08-28T03:14:41.010Z,9.0
2017-08-28T03:15:42.681Z,9.0
2017-08-28T03:16:44.345Z,9.1
2017-08-28T03:17:45.997Z,9.2
2017-08-28T03:18:47.645Z,9.1
2017-08-28T03:19:49.303Z,9.2
2017-08-28T03:20:50.956Z,9.1
2017-08-28T03:21:53.385Z,9.3
2017-08-28T03:22:55.038Z,9.2
2017-08-28T03:23:56.698Z,9.2
2017-08-28T03:24:58.347Z,9.2
2017-08-28T03:25:59.994Z,9.1
2017-08-28T03:27:01.648Z,9.2
2017-08-28T03:28:03.300Z,9.2
2017-08-28T03:29:04.955Z,9.2
2017-08-28T03:30:06.610Z,9.1
2017-08-28T03:31:08.263Z,9.0
2017-08-28T03:32:09.907Z,9.0
2017-08-28T03:33:11.556Z,9.1
2017-08-28T03:34:13.216Z,9.1
2017-08-28T03:35:14.877Z,9.1
2017-08-28T03:36:16.525Z,9.2
2017-08-28T03:37:18.179Z,9.1
2017-08-28T03:38:19.833Z,9.3
2017-08-28T03:39:21.478Z,9.1
2017-08-28T03:40:23.130Z,9.1
2017-08-28T03:41:24.785Z,9.2
2017-08-28T03:42:26.444Z,9.2
2017-08-28T03:43:28.102Z,9.2
2017-08-28T03:44:29.752Z,9.3
2017-08-28T03:45:31.409Z,9.2
2017-08-28T03:46:33.059Z,9.2
2017-08-28T03:47:34.708Z,9.1
2017-08-28T03:48:36.363Z,9.2
2017-08-28T03:49:38.018Z,9.1
2017-08-28T03:50:39.672Z,9.1
2017-08-28T03:51:41.321Z,9.2
2017-08-28T03:52:42.974Z,9.1
2017-08-28T03:53:44.637Z,9.1
2017-08-28T03:54:46.292Z,9.0
2017-08-28T03:55:47.946Z,8.9
2017-08-28T03:56:49.600Z,8.9
2017-08-28T03:57:51.252Z,8.9
2017-08-28T03:58:52.903Z,8.9
2017-08-28T03:59:54.554Z,8.7
2017-08-28T04:00:56.201Z,8.9
2017-08-28T04:01:57.865Z,8.9
2017-08-28T04:02:59.520Z,8.8
2017-08-28T04:04:01.165Z,8.8
2017-08-28T04:05:02.849Z,8.8
2017-08-28T04:06:04.479Z,8.8
2017-08-28T04:07:06.137Z,8.6
2017-08-28T04:08:07.786Z,8.6
2017-08-28T04:09:09.441Z,8.9
2017-08-28T04:10:11.092Z,8.8
2017-08-28T04:11:12.747Z,8.6
2017-08-28T04:12:14.400Z,8.6
2017-08-28T04:13:16.059Z,8.6
2017-08-28T04:14:17.712Z,8.6
2017-08-28T04:15:19.361Z,8.6
2017-08-28T04:16:21.012Z,8.6
2017-08-28T04:17:22.666Z,8.4
2017-08-28T04:18:24.316Z,8.4
2017-08-28T04:19:25.969Z,8.4
2017-08-28T04:20:27.622Z,8.6
2017-08-28T04:21:29.279Z,8.5
2017-08-28T04:22:30.934Z,8.6
2017-08-28T04:23:32.595Z,8.6
2017-08-28T04:24:34.248Z,8.8
2017-08-28T04:25:35.901Z,8.7
2017-08-28T04:26:37.558Z,8.6
2017-08-28T04:27:39.218Z,8.6
2017-08-28T04:28:40.870Z,8.5
2017-08-28T04:29:42.521Z,8.4
2017-08-28T04:30:44.180Z,8.4
2017-08-28T04:31:45.837Z,8.5
2017-08-28T04:32:47.488Z,8.4
2017-08-28T04:33:49.146Z,8.3
2017-08-28T04:34:50.802Z,8.4
2017-08-28T04:35:52.457Z,8.4
2017-08-28T04:36:54.113Z,8.3
2017-08-28T04:37:55.773Z,8.3
2017-08-28T04:38:57.435Z,8.4
2017-08-28T04:39:59.082Z,8.4
2017-08-28T04:41:00.748Z,8.6
2017-08-28T04:42:02.407Z,8.7
2017-08-28T04:43:04.067Z,8.3
2017-08-28T04:44:05.717Z,8.4
2017-08-28T04:45:07.379Z,8.3
2017-08-28T04:46:09.049Z,8.4
2017-08-28T04:47:10.713Z,8.4
2017-08-28T04:48:12.371Z,8.4
2017-08-28T04:49:14.035Z,8.5
2017-08-28T04:50:15.696Z,8.4
2017-08-28T04:51:17.354Z,8.4
2017-08-28T04:52:19.015Z,8.6
2017-08-28T04:53:20.683Z,8.5
2017-08-28T04:54:22.341Z,8.6
2017-08-28T04:55:24.001Z,8.7
2017-08-28T04:56:25.671Z,8.6
2017-08-28T04:57:27.334Z,8.7
2017-08-28T04:58:29.000Z,8.7
2017-08-28T04:59:30.655Z,8.6
2017-08-28T05:00:32.316Z,8.7
2017-08-28T05:01:33.975Z,8.8
2017-08-28T05:02:35.786Z,8.9
2017-08-28T05:03:37.450Z,8.8
2017-08-28T05:04:40.453Z,8.7
2017-08-28T05:05:45.298Z,8.8
2017-08-28T05:06:49.726Z,8.8
2017-08-28T05:07:54.905Z,9.0
2017-08-28T05:08:56.412Z,9.1
2017-08-28T05:09:58.063Z,8.9
2017-08-28T05:10:59.731Z,9.0
2017-08-28T05:12:13.326Z,8.9
2017-08-28T05:13:16.664Z,9.0
2017-08-28T05:14:18.333Z,9.0
2017-08-28T05:15:20.355Z,8.9
2017-08-28T05:16:22.105Z,9.0
2017-08-28T05:17:23.780Z,8.9
2017-08-28T05:18:56.687Z,8.9
2017-08-28T05:19:58.349Z,9.1
2017-08-28T05:21:00.006Z,9.0
2017-08-28T05:22:01.662Z,9.2
2017-08-28T05:23:03.328Z,9.1
2017-08-28T05:24:04.979Z,9.1
2017-08-28T05:25:06.640Z,9.2
2017-08-28T05:26:08.302Z,9.2
2017-08-28T05:27:09.962Z,9.0
2017-08-28T05:28:33.168Z,9.2
2017-08-28T05:29:59.582Z,9.8
2017-08-28T05:31:01.300Z,10.3
2017-08-28T05:32:02.953Z,10.5
2017-08-28T05:33:05.024Z,10.6
2017-08-28T05:34:06.691Z,11.0
2017-08-28T05:35:08.363Z,11.4
2017-08-28T05:36:10.024Z,11.6
2017-08-28T05:37:11.686Z,11.9
2017-08-28T05:38:14.292Z,12.1
2017-08-28T05:39:15.964Z,12.3
2017-08-28T05:40:17.617Z,12.4
2017-08-28T05:41:19.319Z,12.6
2017-08-28T05:42:20.982Z,13.0
2017-08-28T05:43:23.511Z,13.2
2017-08-28T05:44:25.174Z,12.9
2017-08-28T05:45:26.845Z,13.1
2017-08-28T05:46:28.498Z,12.8
2017-08-28T05:47:30.162Z,13.4
2017-08-28T05:48:32.585Z,13.4
2017-08-28T05:49:34.254Z,13.6
2017-08-28T05:50:35.923Z,13.3
2017-08-28T05:51:37.587Z,12.8
2017-08-28T05:52:39.299Z,12.7
2017-08-28T05:53:40.962Z,12.8
2017-08-28T05:54:43.271Z,12.7
2017-08-28T06:01:31.473Z,13.1
2017-08-28T06:02:33.173Z,13.0
2017-08-28T06:03:34.821Z,13.7
2017-08-28T06:04:36.481Z,14.4
2017-08-28T06:05:38.145Z,14.2
2017-08-28T06:06:40.414Z,13.9
2017-08-28T06:07:42.076Z,13.5
2017-08-28T06:08:43.749Z,13.5
2017-08-28T06:09:45.404Z,13.6
2017-08-28T06:10:47.117Z,13.4
2017-08-28T06:11:48.886Z,13.6
2017-08-28T06:12:54.173Z,13.8
2017-08-28T06:13:55.840Z,14.7
2017-08-28T06:14:57.518Z,14.5
2017-08-28T06:16:00.852Z,15.0
2017-08-28T06:17:02.518Z,15.1
2017-08-28T06:18:04.194Z,15.5
2017-08-28T06:19:05.858Z,16.0
2017-08-28T06:20:07.713Z,16.2
2017-08-28T06:21:13.708Z,16.6
2017-08-28T06:22:17.077Z,17.1
2017-08-28T06:23:19.279Z,16.2
2017-08-28T06:24:20.943Z,16.2
2017-08-28T06:25:22.626Z,15.4
2017-08-28T06:26:24.312Z,14.8
2017-08-28T06:27:25.972Z,15.1
2017-08-28T06:28:27.636Z,14.9
2017-08-28T06:29:29.298Z,16.2
2017-08-28T06:30:30.980Z,16.6
2017-08-28T06:31:32.644Z,16.8
2017-08-28T06:32:34.314Z,17.4
2017-08-28T06:33:35.976Z,17.9
2017-08-28T06:34:37.642Z,17.8
2017-08-28T06:35:39.318Z,17.9
2017-08-28T06:36:40.984Z,18.4
2017-08-28T06:37:42.650Z,18.2
2017-08-28T06:38:44.316Z,18.1
2017-08-28T06:39:45.976Z,18.1
2017-08-28T06:40:47.637Z,17.9
2017-08-28T06:41:49.301Z,18.3
2017-08-28T06:42:50.967Z,18.0
2017-08-28T06:43:52.637Z,18.4
2017-08-28T06:44:54.300Z,18.8
2017-08-28T06:45:55.962Z,19.1
2017-08-28T06:46:57.625Z,19.0
2017-08-28T06:47:59.299Z,19.3
2017-08-28T06:49:00.977Z,19.0
2017-08-28T06:50:02.642Z,19.1
2017-08-28T06:51:04.318Z,19.3
2017-08-28T06:52:05.984Z,19.6
2017-08-28T06:53:07.655Z,19.8
2017-08-28T06:54:09.312Z,19.9
2017-08-28T06:55:10.982Z,19.8
2017-08-28T06:56:12.646Z,20.2
2017-08-28T06:57:14.322Z,20.1
2017-08-28T06:58:15.996Z,20.0
2017-08-28T06:59:17.655Z,20.3
2017-08-28T07:00:19.319Z,19.1
2017-08-28T07:01:20.992Z,19.9
2017-08-28T07:02:22.676Z,20.3
2017-08-28T07:03:24.350Z,20.2
2017-08-28T07:04:26.012Z,20.2
2017-08-28T07:05:27.679Z,18.9
2017-08-28T07:06:29.361Z,20.0
2017-08-28T07:07:31.037Z,20.5
2017-08-28T07:08:32.701Z,20.6
2017-08-28T07:09:34.369Z,21.4
2017-08-28T07:10:36.034Z,21.3
2017-08-28T07:11:37.704Z,21.9
2017-08-28T07:12:39.370Z,22.4
2017-08-28T07:13:41.052Z,23.0
2017-08-28T07:14:42.715Z,23.2
2017-08-28T07:15:44.376Z,23.4
2017-08-28T07:16:46.049Z,23.4
2017-08-28T07:17:47.725Z,23.2
2017-08-28T07:18:49.384Z,23.8
2017-08-28T07:19:51.062Z,23.8
2017-08-28T07:20:52.722Z,23.7
2017-08-28T07:21:54.393Z,23.6
2017-08-28T07:22:56.061Z,24.1
2017-08-28T07:23:57.746Z,24.1
2017-08-28T07:24:59.408Z,24.3
2017-08-28T07:26:01.085Z,24.4
2017-08-28T07:27:02.759Z,23.8
2017-08-28T07:28:04.420Z,23.9
2017-08-28T07:29:06.086Z,24.0
2017-08-28T07:30:07.752Z,24.2
2017-08-28T07:31:09.422Z,24.6
2017-08-28T07:32:11.084Z,23.8
2017-08-28T07:33:12.756Z,22.7
2017-08-28T07:34:14.431Z,23.4
2017-08-28T07:35:16.103Z,24.4
2017-08-28T07:36:17.798Z,24.8
2017-08-28T07:37:19.467Z,25.0
2017-08-28T07:38:21.134Z,24.5
2017-08-28T07:39:22.805Z,25.0
2017-08-28T07:40:24.477Z,25.7
2017-08-28T07:41:26.151Z,25.7
2017-08-28T07:42:27.839Z,26.1
2017-08-28T07:43:29.495Z,26.4
2017-08-28T07:44:31.162Z,26.5
2017-08-28T07:45:32.839Z,26.6
2017-08-28T07:46:34.893Z,26.7
2017-08-28T07:47:36.566Z,26.7
2017-08-28T07:48:38.240Z,27.0
2017-08-28T07:49:40.146Z,27.0
2017-08-28T07:50:41.834Z,26.7
2017-08-28T07:51:43.507Z,27.3
2017-08-28T07:52:45.194Z,27.3
2017-08-28T07:53:46.864Z,27.8
2017-08-28T07:54:48.537Z,27.9
2017-08-28T07:55:50.201Z,27.4
2017-08-28T07:56:51.881Z,27.8
2017-08-28T07:57:53.559Z,28.4
2017-08-28T07:58:55.232Z,28.6
2017-08-28T07:59:56.908Z,28.7
2017-08-28T08:00:58.641Z,29.1
2017-08-28T08:02:00.328Z,29.1
2017-08-28T08:03:02.001Z,29.5
2017-08-28T08:04:03.678Z,28.4
2017-08-28T08:05:05.354Z,27.3
2017-08-28T08:06:07.027Z,27.6
2017-08-28T08:07:08.719Z,27.8
2017-08-28T08:08:10.373Z,27.8
2017-08-28T08:09:12.044Z,28.1
2017-08-28T08:10:13.725Z,28.3
2017-08-28T08:11:15.418Z,28.1
2017-08-28T08:12:17.085Z,28.6
2017-08-28T08:13:18.766Z,29.2
2017-08-28T08:14:20.437Z,29.6
2017-08-28T08:15:22.112Z,29.4
2017-08-28T08:16:23.795Z,28.4
2017-08-28T08:17:25.479Z,29.1
2017-08-28T08:18:27.155Z,29.4
2017-08-28T08:19:28.829Z,29.1
2017-08-28T08:20:30.507Z,28.7
2017-08-28T08:21:32.173Z,28.6
2017-08-28T08:22:33.854Z,28.1
2017-08-28T08:23:35.538Z,28.6
2017-08-28T08:24:37.224Z,27.2
2017-08-28T08:25:38.904Z,25.8
2017-08-28T08:26:40.585Z,25.5
2017-08-28T08:27:42.251Z,25.2
2017-08-28T08:28:43.929Z,26.6
2017-08-28T08:29:45.608Z,27.4
2017-08-28T08:30:47.928Z,27.6
2017-08-28T08:31:49.603Z,26.6
2017-08-28T08:32:51.280Z,26.5
2017-08-28T08:33:52.955Z,27.0
2017-08-28T08:34:54.631Z,27.1
2017-08-28T08:35:56.328Z,26.4
2017-08-28T08:36:58.009Z,25.7
2017-08-28T08:37:59.689Z,26.7
2017-08-28T08:39:01.356Z,27.1
2017-08-28T08:40:03.036Z,27.6
2017-08-28T08:41:04.725Z,27.7
2017-08-28T08:42:06.414Z,27.1
2017-08-28T08:43:08.100Z,26.4
2017-08-28T08:44:09.784Z,27.0
2017-08-28T08:45:11.493Z,27.2
2017-08-28T08:46:13.178Z,27.3
2017-08-28T08:47:14.854Z,26.0
2017-08-28T08:48:16.526Z,25.0
2017-08-28T08:49:18.198Z,25.2
2017-08-28T08:50:19.875Z,25.4
2017-08-28T08:51:21.564Z,25.3
2017-08-28T08:52:23.256Z,25.0
2017-08-28T08:53:24.939Z,25.3
2017-08-28T08:54:26.624Z,25.3
2017-08-28T08:55:28.302Z,26.2
2017-08-28T08:56:29.981Z,25.9
2017-08-28T08:57:31.658Z,25.7
2017-08-28T08:58:33.344Z,25.1
2017-08-28T08:59:35.029Z,24.9
2017-08-28T09:00:36.714Z,24.8
2017-08-28T09:01:38.402Z,24.5
2017-08-28T09:02:40.087Z,25.5
2017-08-28T09:03:41.798Z,24.8
2017-08-28T09:04:43.468Z,25.6
2017-08-28T09:05:45.147Z,25.4
2017-08-28T09:06:46.825Z,26.3
2017-08-28T09:07:48.505Z,26.0
2017-08-28T09:08:50.187Z,26.2
2017-08-28T09:09:51.878Z,25.2
2017-08-28T09:10:53.541Z,26.3
2017-08-28T09:11:55.218Z,26.6
2017-08-28T09:12:56.903Z,25.6
2017-08-28T09:13:58.594Z,25.5
2017-08-28T09:15:00.274Z,26.3
2017-08-28T09:16:01.952Z,26.2
2017-08-28T09:17:03.639Z,26.5
2017-08-28T09:18:05.321Z,26.4
2017-08-28T09:19:07.006Z,27.5
2017-08-28T09:20:08.726Z,28.2
2017-08-28T09:21:10.414Z,28.5
2017-08-28T09:22:12.089Z,29.2
2017-08-28T09:23:13.768Z,29.7
2017-08-28T09:24:15.489Z,29.9
2017-08-28T09:25:17.168Z,28.5
2017-08-28T09:26:18.843Z,27.8
2017-08-28T09:27:20.532Z,28.2
2017-08-28T09:28:22.212Z,28.5
2017-08-28T09:29:23.890Z,28.0
2017-08-28T09:30:25.593Z,27.8
2017-08-28T09:31:27.265Z,26.7
2017-08-28T09:32:28.944Z,27.0
2017-08-28T09:33:30.624Z,27.0
2017-08-28T09:34:32.301Z,26.6
2017-08-28T09:35:33.980Z,25.6
2017-08-28T09:36:35.667Z,25.5
2017-08-28T09:37:37.352Z,25.7
2017-08-28T09:38:39.052Z,25.7
2017-08-28T09:39:40.726Z,25.9
2017-08-28T09:40:42.412Z,25.8
2017-08-28T09:41:44.083Z,26.4
2017-08-28T09:42:45.764Z,26.6
2017-08-28T09:43:47.452Z,26.1
2017-08-28T09:44:49.141Z,27.9
2017-08-28T09:45:50.826Z,27.6
2017-08-28T09:47:07.335Z,26.0
2017-08-28T09:48:09.005Z,26.5
2017-08-28T09:49:10.681Z,27.0
2017-08-28T09:50:12.355Z,27.5
2017-08-28T09:51:14.030Z,27.0
2017-08-28T09:52:15.717Z,26.5
2017-08-28T09:53:17.395Z,26.8
2017-08-28T09:54:19.108Z,27.1
2017-08-28T10:01:08.609Z,25.8
2017-08-28T10:02:10.284Z,25.8
2017-08-28T10:04:02.181Z,27.2
2017-08-28T10:05:03.868Z,27.2
2017-08-28T10:06:05.579Z,27.6
2017-08-28T10:07:07.233Z,28.1
2017-08-28T10:08:08.915Z,27.7
2017-08-28T10:09:10.598Z,26.8
2017-08-28T10:10:12.273Z,27.1
2017-08-28T10:11:13.958Z,27.9
2017-08-28T10:12:15.635Z,28.2
2017-08-28T10:13:17.326Z,28.2
2017-08-28T10:14:19.023Z,26.4
2017-08-28T10:15:20.706Z,26.6
2017-08-28T10:16:22.380Z,26.3
2017-08-28T10:17:24.076Z,26.6
2017-08-28T10:18:25.768Z,26.7
2017-08-28T10:19:27.440Z,27.7
2017-08-28T10:20:29.121Z,28.6
2017-08-28T10:21:30.794Z,29.2
2017-08-28T10:22:32.477Z,28.1
2017-08-28T10:23:34.154Z,27.3
2017-08-28T10:24:35.837Z,26.9
2017-08-28T10:25:37.534Z,27.4
2017-08-28T10:26:39.198Z,28.1
2017-08-28T10:27:40.881Z,28.6
2017-08-28T10:28:42.561Z,28.2
2017-08-28T10:29:44.241Z,28.2
2017-08-28T10:30:45.962Z,27.4
2017-08-28T10:31:47.641Z,26.9
2017-08-28T10:32:49.324Z,27.9
2017-08-28T10:33:50.999Z,28.9
2017-08-28T10:34:52.680Z,28.1
2017-08-28T10:35:54.362Z,27.6
2017-08-28T10:36:56.043Z,28.2
2017-08-28T10:37:57.747Z,27.8
2017-08-28T10:38:59.428Z,28.3
2017-08-28T10:40:01.103Z,29.7
2017-08-28T10:41:02.785Z,30.4
2017-08-28T10:42:04.463Z,30.4
2017-08-28T10:43:06.135Z,31.4
2017-08-28T10:44:07.831Z,31.8
2017-08-28T10:45:09.498Z,31.8
2017-08-28T10:46:11.182Z,31.4
2017-08-28T10:47:12.859Z,31.6
2017-08-28T10:48:14.539Z,30.8
2017-08-28T10:49:16.211Z,30.7
2017-08-28T10:50:17.889Z,30.1
2017-08-28T10:51:19.576Z,29.2
2017-08-28T10:52:21.268Z,28.0
2017-08-28T10:53:22.953Z,26.5
2017-08-28T10:54:24.644Z,27.2
2017-08-28T10:55:26.321Z,26.8
2017-08-28T10:56:28.002Z,27.2
2017-08-28T10:57:29.679Z,27.8
2017-08-28T10:58:31.356Z,28.8
2017-08-28T10:59:33.036Z,29.0
2017-08-28T11:00:34.724Z,29.9
2017-08-28T11:01:36.402Z,28.5
2017-08-28T11:02:38.093Z,28.4
2017-08-28T11:03:39.773Z,28.9
2017-08-28T11:04:41.458Z,28.4
2017-08-28T11:05:43.171Z,28.3
2017-08-28T11:06:44.858Z,29.2
2017-08-28T11:07:46.543Z,29.8
2017-08-28T11:08:48.236Z,30.3
2017-08-28T11:09:49.919Z,30.0
2017-08-28T11:10:51.675Z,30.5
2017-08-28T11:11:53.360Z,30.8
2017-08-28T11:12:55.048Z,30.7
2017-08-28T11:13:56.738Z,30.0
2017-08-28T11:14:58.593Z,30.4
2017-08-28T11:16:00.279Z,30.3
2017-08-28T11:17:01.952Z,31.3
2017-08-28T11:18:03.636Z,30.9
2017-08-28T11:19:05.378Z,31.1
2017-08-28T11:20:07.065Z,30.9
2017-08-28T11:21:08.754Z,30.3
2017-08-28T11:22:10.426Z,31.0
2017-08-28T11:23:12.105Z,30.1
2017-08-28T11:24:13.787Z,28.6
2017-08-28T11:25:15.469Z,27.6
2017-08-28T11:26:17.198Z,27.9
2017-08-28T11:27:18.841Z,28.0
2017-08-28T11:28:20.526Z,28.0
2017-08-28T11:29:22.210Z,27.3
2017-08-28T11:30:23.897Z,27.1
2017-08-28T11:31:25.587Z,27.9
2017-08-28T11:32:27.268Z,27.6
2017-08-28T11:33:29.004Z,27.2
2017-08-28T11:34:30.684Z,27.5
2017-08-28T11:35:32.410Z,27.1
2017-08-28T11:36:34.092Z,27.0
2017-08-28T11:37:35.777Z,27.2
2017-08-28T11:38:37.456Z,28.4
2017-08-28T11:39:39.891Z,29.3
2017-08-28T11:40:41.568Z,30.4
2017-08-28T11:41:43.887Z,30.6
2017-08-28T11:42:45.561Z,31.0
2017-08-28T11:43:47.471Z,31.0
2017-08-28T11:44:49.291Z,29.8
2017-08-28T11:45:51.085Z,30.2
2017-08-28T11:46:52.760Z,30.6
2017-08-28T11:47:54.918Z,30.2
2017-08-28T11:48:56.599Z,30.2
2017-08-28T11:49:58.442Z,30.1
2017-08-28T11:51:00.947Z,30.7
2017-08-28T11:52:03.146Z,31.4
2017-08-28T11:53:04.819Z,31.6
2017-08-28T11:54:06.518Z,32.0
2017-08-28T11:55:08.224Z,31.0
2017-08-28T11:56:09.893Z,30.8
2017-08-28T11:57:11.575Z,31.3
2017-08-28T11:58:13.602Z,31.9
2017-08-28T11:59:15.290Z,31.1
2017-08-28T12:00:17.218Z,31.4
2017-08-28T12:02:28.515Z,31.8
2017-08-28T12:03:30.296Z,31.3
2017-08-28T12:04:31.974Z,31.0
2017-08-28T12:05:33.893Z,30.3
2017-08-28T12:06:35.603Z,30.3
2017-08-28T12:07:37.393Z,29.5
2017-08-28T12:08:39.309Z,30.2
2017-08-28T12:09:40.988Z,29.8
2017-08-28T12:10:42.838Z,30.9
2017-08-28T12:11:44.574Z,30.9
2017-08-28T12:12:46.825Z,31.0
2017-08-28T12:13:48.501Z,30.8
2017-08-28T12:14:51.026Z,31.4
2017-08-28T12:15:52.601Z,31.3
2017-08-28T12:16:54.612Z,31.3
2017-08-28T12:17:56.615Z,30.7
2017-08-28T12:18:58.502Z,30.8
2017-08-28T12:20:01.874Z,30.4
2017-08-28T12:21:03.544Z,29.9
2017-08-28T12:22:05.307Z,29.8
2017-08-28T12:23:07.029Z,29.6
2017-08-28T12:24:10.631Z,29.7
2017-08-28T12:25:13.191Z,30.0
2017-08-28T12:26:14.934Z,30.3
2017-08-28T12:27:17.441Z,30.1
2017-08-28T12:28:19.401Z,30.6
2017-08-28T12:29:21.859Z,30.7
2017-08-28T12:30:24.103Z,31.0
2017-08-28T12:31:25.893Z,31.4
2017-08-28T12:32:27.650Z,31.6
2017-08-28T12:33:29.980Z,31.5
2017-08-28T12:34:32.032Z,31.9
2017-08-28T12:35:33.790Z,32.0
2017-08-28T12:36:35.585Z,31.9
2017-08-28T12:37:37.317Z,30.7
2017-08-28T12:38:39.090Z,31.3
2017-08-28T12:39:40.812Z,31.5
2017-08-28T12:40:42.519Z,31.4
2017-08-28T12:41:44.240Z,31.3
2017-08-28T12:42:46.056Z,31.3
2017-08-28T12:43:47.792Z,31.9
2017-08-28T12:44:49.512Z,30.7
2017-08-28T12:45:51.256Z,30.9
2017-08-28T12:46:53.008Z,30.8
2017-08-28T12:47:54.726Z,30.1
2017-08-28T12:48:56.405Z,29.5
2017-08-28T12:49:58.130Z,29.8
2017-08-28T12:50:59.818Z,29.3
2017-08-28T12:52:01.507Z,29.2
2017-08-28T12:53:03.199Z,30.3
2017-08-28T12:55:42.626Z,30.3
2017-08-28T12:56:59.336Z,30.5
2017-08-28T12:58:01.053Z,29.0
2017-08-28T12:59:02.781Z,29.1
2017-08-28T13:00:04.603Z,29.0
2017-08-28T13:01:06.379Z,29.3
2017-08-28T13:02:08.107Z,29.8
2017-08-28T13:03:09.866Z,31.1
2017-08-28T13:04:11.714Z,31.9
2017-08-28T13:05:13.461Z,31.2
2017-08-28T13:06:15.192Z,30.9
2017-08-28T13:07:16.954Z,31.2
2017-08-28T13:08:18.694Z,31.3
2017-08-28T13:09:20.422Z,31.0
2017-08-28T13:10:22.167Z,31.1
2017-08-28T13:11:23.942Z,30.8
2017-08-28T13:12:25.700Z,30.6
2017-08-28T13:13:27.509Z,30.6
2017-08-28T13:14:29.231Z,30.6
2017-08-28T13:15:31.002Z,31.1
2017-08-28T13:16:32.766Z,31.4
2017-08-28T13:17:34.479Z,30.0
2017-08-28T13:18:36.333Z,29.6
2017-08-28T13:19:39.804Z,30.1
2017-08-28T13:20:41.511Z,29.0
2017-08-28T13:21:43.266Z,29.3
2017-08-28T13:22:45.002Z,28.7
2017-08-28T13:23:46.841Z,28.8
2017-08-28T13:24:48.622Z,29.1
2017-08-28T13:25:50.397Z,30.2
2017-08-28T13:26:52.103Z,30.8
2017-08-28T13:27:53.791Z,31.2
2017-08-28T13:28:55.485Z,31.0
2017-08-28T13:29:57.325Z,30.6
2017-08-28T13:30:59.013Z,30.6
2017-08-28T13:32:01.560Z,28.8
2017-08-28T13:33:03.315Z,28.4
2017-08-28T13:34:05.062Z,27.9
2017-08-28T13:35:07.298Z,28.9
2017-08-28T13:36:11.505Z,29.4
2017-08-28T13:37:13.228Z,30.0
2017-08-28T13:38:16.754Z,30.6
2017-08-28T13:39:19.087Z,30.5
2017-08-28T13:40:20.757Z,30.5
2017-08-28T13:41:22.457Z,30.5
2017-08-28T13:42:24.501Z,30.5
2017-08-28T13:43:26.256Z,29.3
2017-08-28T13:44:27.954Z,29.4
2017-08-28T13:45:29.681Z,29.2
2017-08-28T13:46:31.427Z,29.7
2017-08-28T13:47:33.166Z,29.6
2017-08-28T13:48:34.911Z,28.7
2017-08-28T13:49:36.657Z,28.9
2017-08-28T13:50:38.386Z,28.0
2017-08-28T13:51:40.115Z,27.3
2017-08-28T13:52:41.889Z,27.8
2017-08-28T13:53:44.369Z,27.2
2017-08-28T13:54:46.204Z,27.4
2017-08-28T13:55:47.969Z,27.2
2017-08-28T14:01:57.252Z,29.6
2017-08-28T14:02:58.929Z,30.2
2017-08-28T14:04:00.622Z,30.5
2017-08-28T14:05:02.342Z,30.6
2017-08-28T14:06:04.027Z,30.7
2017-08-28T14:07:05.702Z,30.8
2017-08-28T14:08:07.411Z,30.8
2017-08-28T14:09:09.119Z,30.7
2017-08-28T14:10:10.879Z,30.4
2017-08-28T14:11:12.623Z,30.2
2017-08-28T14:12:14.311Z,30.1
2017-08-28T14:13:15.979Z,30.2
2017-08-28T14:14:17.655Z,30.4
2017-08-28T14:15:19.341Z,30.6
2017-08-28T14:16:21.025Z,30.9
2017-08-28T14:17:22.705Z,30.8